Time;durP1;ratioP1;P1;durP2;ratioP2;P2;SDS_P1;SDS_P2;PMS_P1;PMS_P2;Temp;Humidity;BMP_temperature;BMP_pressure;BME280_temperature;BME280_humidity;BME280_pressure;Samples;Min_cycle;Max_cycle;Signal;HPM_P1;HPM_P2
2021/10/26 00:02:21;;;;;;;;;9.25;6.00;;;;;20.64;50.87;101570.78;5018841;28;45705;-59
2021/10/26 00:04:47;;;;;;;;;8.00;6.00;;;;;20.63;51.10;101579.59;5017409;28;45389;-62
2021/10/26 00:07:12;;;;;;;;;8.00;8.00;;;;;20.62;50.81;101571.75;5018975;28;45525;-65
2021/10/26 00:09:38;;;;;;;;;6.25;6.25;;;;;20.62;51.14;101577.88;5018539;28;46647;-66
2021/10/26 00:12:05;;;;;;;;;7.00;7.00;;;;;20.61;51.24;101568.25;5018558;28;45360;-70
2021/10/26 00:14:30;;;;;;;;;8.25;7.00;;;;;20.62;50.94;101569.09;5018697;28;45424;-66
2021/10/26 00:16:56;;;;;;;;;9.75;7.25;;;;;20.61;50.96;101570.91;5018911;28;45438;-60
2021/10/26 00:19:22;;;;;;;;;6.50;6.50;;;;;20.61;51.13;101576.16;5018443;28;46422;-63
2021/10/26 00:21:48;;;;;;;;;8.00;8.00;;;;;20.60;51.28;101571.81;5000829;28;45884;-62
2021/10/26 00:24:13;;;;;;;;;10.00;7.00;;;;;20.61;51.31;101575.31;5018461;28;45328;-69
2021/10/26 00:26:39;;;;;;;;;8.00;7.00;;;;;20.57;51.49;101569.31;5018588;28;45235;-67
2021/10/26 00:29:05;;;;;;;;;7.25;7.25;;;;;20.60;51.67;101573.63;5018455;28;45433;-63
2021/10/26 00:31:32;;;;;;;;;8.50;8.25;;;;;20.57;51.63;101574.56;5018708;28;45239;-68
2021/10/26 00:33:57;;;;;;;;;8.50;7.00;;;;;20.59;51.61;101577.16;5018383;28;45537;-70
2021/10/26 00:36:22;;;;;;;;;7.75;7.00;;;;;20.57;51.60;101593.00;5018559;28;45547;-69
2021/10/26 00:38:48;;;;;;;;;7.25;7.25;;;;;20.54;51.63;101575.56;5017937;28;46365;-70
2021/10/26 00:41:14;;;;;;;;;9.00;6.00;;;;;20.58;51.79;101594.72;5018179;28;45404;-63
2021/10/26 00:43:40;;;;;;;;;7.00;6.25;;;;;20.57;51.60;101593.00;5018097;28;45321;-62
2021/10/26 00:46:06;;;;;;;;;7.25;7.25;;;;;20.57;51.35;101600.91;5018166;28;45452;-54
2021/10/26 00:48:32;;;;;;;;;7.00;6.00;;;;;20.53;51.67;101589.66;5018260;28;45410;-60
2021/10/26 00:50:57;;;;;;;;;6.50;4.75;;;;;20.51;51.62;101585.41;5017719;28;45452;-67
2021/10/26 00:53:22;;;;;;;;;8.50;5.75;;;;;20.57;51.75;101595.66;5018416;28;45378;-55
2021/10/26 00:55:49;;;;;;;;;7.25;7.25;;;;;20.54;52.21;101599.28;5018095;28;45417;-46
2021/10/26 00:58:15;;;;;;;;;6.75;6.00;;;;;20.54;52.06;101598.44;5017732;28;45435;-61
2021/10/26 01:00:41;;;;;;;;;7.25;7.25;;;;;20.52;52.04;101593.22;5018204;28;45437;-58
2021/10/26 01:03:06;;;;;;;;;9.25;8.75;;;;;20.53;51.84;101594.94;5017871;28;45368;-63
2021/10/26 01:05:32;;;;;;;;;8.00;7.25;;;;;20.51;51.59;101593.28;5018525;28;45406;-58
2021/10/26 01:07:58;;;;;;;;;8.50;6.50;;;;;20.53;51.63;101594.09;5017582;28;46426;-63
2021/10/26 01:10:23;;;;;;;;;8.00;7.00;;;;;20.53;51.90;101594.09;5017771;28;45506;-66
2021/10/26 01:12:50;;;;;;;;;9.75;7.00;;;;;20.52;52.12;101602.91;5017829;28;45287;-66
2021/10/26 01:15:15;;;;;;;;;7.00;6.25;;;;;20.52;51.64;101601.13;5017999;28;45527;-52
2021/10/26 01:17:41;;;;;;;;;7.25;6.25;;;;;20.51;51.97;101598.56;5017263;28;46151;-65
2021/10/26 01:20:07;;;;;;;;;6.50;6.50;;;;;20.50;52.12;101603.00;5017616;28;45361;-66
2021/10/26 01:22:39;;;;;;;;;7.25;6.25;;;;;20.51;52.19;101606.47;5018081;28;45354;-66
2021/10/26 01:25:07;;;;;;;;;9.25;7.75;;;;;20.52;51.92;101603.75;5018027;28;45463;-69
2021/10/26 01:27:32;;;;;;;;;8.50;6.75;;;;;20.51;51.85;101603.81;5017435;28;45402;-56
2021/10/26 01:29:58;;;;;;;;;9.50;7.00;;;;;20.51;51.96;101602.03;5017207;28;45190;-57
2021/10/26 01:32:23;;;;;;;;;9.00;6.25;;;;;20.50;51.81;101597.72;5017298;28;45437;-65
2021/10/26 01:34:49;;;;;;;;;6.50;6.50;;;;;20.48;52.53;101596.06;5017567;28;45643;-65
2021/10/26 01:37:14;;;;;;;;;8.75;6.00;;;;;20.50;51.99;101599.47;5017310;28;45466;-65
2021/10/26 01:39:40;;;;;;;;;9.75;6.50;;;;;20.46;52.61;101592.63;5017097;28;45421;-70
2021/10/26 01:42:07;;;;;;;;;7.00;7.00;;;;;20.50;52.11;101588.94;5017493;28;45318;-50
2021/10/26 01:44:32;;;;;;;;;7.00;7.00;;;;;20.50;52.08;101602.13;5017922;28;45642;-71
2021/10/26 01:46:59;;;;;;;;;8.00;7.25;;;;;20.48;52.47;101601.31;5017088;28;45381;-65
2021/10/26 01:49:24;;;;;;;;;7.75;6.50;;;;;20.49;52.04;101609.16;4999143;28;45435;-71
2021/10/26 01:51:50;;;;;;;;;8.00;7.00;;;;;20.46;52.01;101605.78;5017074;28;45375;-71
2021/10/26 01:54:16;;;;;;;;;9.75;7.00;;;;;20.48;52.27;101601.31;5017290;28;45603;-66
2021/10/26 01:56:43;;;;;;;;;7.50;7.50;;;;;20.47;52.61;101600.47;5016951;28;46363;-60
2021/10/26 01:59:09;;;;;;;;;8.25;5.75;;;;;20.46;52.74;101609.28;5017034;28;45349;-65
2021/10/26 02:01:34;;;;;;;;;7.50;7.00;;;;;20.47;52.70;101604.88;5017336;28;45363;-55
2021/10/26 02:04:00;;;;;;;;;8.50;8.50;;;;;20.46;52.74;101609.28;5016943;28;45245;-65
2021/10/26 02:06:25;;;;;;;;;6.25;6.00;;;;;20.48;52.42;101612.72;5016148;28;45432;-59
2021/10/26 02:08:50;;;;;;;;;7.50;6.50;;;;;20.47;52.27;101607.50;5016753;28;45261;-71
2021/10/26 02:11:16;;;;;;;;;7.00;5.75;;;;;20.46;52.54;101608.41;5016803;28;45261;-52
2021/10/26 02:13:41;;;;;;;;;6.25;6.25;;;;;20.45;52.76;101602.31;5017075;28;45357;-60
2021/10/26 02:16:07;;;;;;;;;7.75;7.25;;;;;20.46;52.62;101600.53;5016740;28;45456;-52
2021/10/26 02:18:33;;;;;;;;;7.25;7.25;;;;;20.44;52.19;101600.59;5016843;28;45313;-60
2021/10/26 02:20:59;;;;;;;;;6.50;5.75;;;;;20.46;52.81;101596.13;4998851;28;45427;-67
2021/10/26 02:23:24;;;;;;;;;9.00;7.00;;;;;20.44;52.18;101599.75;5017081;28;45729;-68
2021/10/26 02:25:50;;;;;;;;;8.00;7.00;;;;;20.46;52.25;101605.78;5016639;28;45567;-67
2021/10/26 02:28:16;;;;;;;;;7.50;6.25;;;;;20.46;52.17;101608.41;5016431;28;45448;-71
2021/10/26 02:30:42;;;;;;;;;6.25;6.25;;;;;20.44;52.85;101594.50;5016767;28;45259;-70
2021/10/26 02:33:09;;;;;;;;;6.25;6.25;;;;;20.45;52.57;101593.56;5017229;28;45373;-63
2021/10/26 02:35:34;;;;;;;;;6.00;5.00;;;;;20.45;52.49;101601.47;5016794;28;45453;-58
2021/10/26 02:38:00;;;;;;;;;5.75;5.75;;;;;20.44;52.41;101603.22;5016423;28;45230;-63
2021/10/26 02:40:26;;;;;;;;;7.00;7.00;;;;;20.44;52.57;101605.03;5016295;28;45469;-71
2021/10/26 02:42:52;;;;;;;;;6.75;6.75;;;;;20.44;52.30;101599.75;5016586;28;45583;-58
2021/10/26 02:45:19;;;;;;;;;6.00;4.50;;;;;20.43;52.77;101603.31;5016125;28;46421;-65
2021/10/26 02:47:44;;;;;;;;;7.50;6.00;;;;;20.45;52.32;101612.00;5016125;28;45328;-69
2021/10/26 02:50:10;;;;;;;;;5.75;4.75;;;;;20.44;52.22;101610.28;5016526;28;45276;-67
2021/10/26 02:52:38;;;;;;;;;8.25;6.00;;;;;20.42;52.27;101607.69;4998988;28;45322;-61
2021/10/26 02:55:04;;;;;;;;;6.00;6.00;;;;;20.42;52.67;101601.59;5016236;28;47444;-62
2021/10/26 02:57:29;;;;;;;;;7.00;5.75;;;;;20.43;52.30;101609.41;5016865;28;45937;-59
2021/10/26 02:59:55;;;;;;;;;7.75;7.75;;;;;20.41;52.46;101610.41;5017669;28;45365;-69
2021/10/26 03:02:20;;;;;;;;;6.00;6.00;;;;;20.39;52.75;101610.50;4984686;28;45650;-68
2021/10/26 03:04:45;;;;;;;;;5.50;5.00;;;;;20.41;52.91;101611.25;5017103;28;46622;-72
2021/10/26 03:07:11;;;;;;;;;9.50;6.00;;;;;20.41;52.45;101615.69;5016489;28;45417;-68
2021/10/26 03:09:36;;;;;;;;;6.25;6.25;;;;;20.42;52.33;101617.38;5016666;28;45420;-61
2021/10/26 03:12:01;;;;;;;;;5.00;4.00;;;;;20.42;52.44;101620.03;5017706;28;45438;-70
2021/10/26 03:14:27;;;;;;;;;8.50;7.00;;;;;20.39;52.80;101621.84;5017163;28;45518;-73
2021/10/26 03:16:53;;;;;;;;;6.50;6.00;;;;;20.41;52.96;101626.22;5016218;28;45477;-64
2021/10/26 03:19:18;;;;;;;;;7.50;6.00;;;;;20.39;52.97;101621.84;5019035;28;45356;-65
2021/10/26 03:21:43;;;;;;;;;6.00;4.75;;;;;20.38;52.63;101622.78;5020200;28;45401;-67
2021/10/26 03:24:09;;;;;;;;;4.25;4.25;;;;;20.39;52.90;101629.75;5019818;28;45867;-66
2021/10/26 03:26:34;;;;;;;;;8.00;5.00;;;;;20.39;52.81;101627.13;5019670;28;45366;-71
2021/10/26 03:29:00;;;;;;;;;6.75;5.25;;;;;20.37;52.81;101631.59;5019467;28;45420;-63
2021/10/26 03:31:26;;;;;;;;;5.00;4.00;;;;;20.39;52.56;101632.41;5020104;28;45632;-72
2021/10/26 03:33:51;;;;;;;;;4.50;4.50;;;;;20.33;52.43;101622.13;5019116;28;46151;-71
2021/10/26 03:36:17;;;;;;;;;5.00;5.00;;;;;20.37;52.42;101628.13;5000799;28;45767;-70
2021/10/26 03:38:43;;;;;;;;;5.50;5.00;;;;;20.37;52.41;101628.13;5019229;28;45483;-72
2021/10/26 03:41:09;;;;;;;;;5.00;4.25;;;;;20.37;52.54;101630.75;5019524;28;45518;-66
2021/10/26 03:43:34;;;;;;;;;5.00;4.00;;;;;20.37;52.43;101628.97;5019005;28;45489;-64
2021/10/26 03:45:59;;;;;;;;;5.50;5.00;;;;;20.36;52.97;101629.88;5019270;28;45278;-73
2021/10/26 03:48:26;;;;;;;;;6.00;5.00;;;;;20.36;52.84;101631.66;5019218;28;45250;-75
2021/10/26 03:50:52;;;;;;;;;4.00;4.00;;;;;20.37;52.60;101630.75;5019211;28;45475;-67
2021/10/26 03:53:17;;;;;;;;;4.00;4.00;;;;;20.37;52.49;101634.22;5018766;28;46251;-72
2021/10/26 03:55:43;;;;;;;;;6.00;6.00;;;;;20.36;52.74;101637.78;5018860;28;45519;-64
2021/10/26 03:58:08;;;;;;;;;5.75;3.00;;;;;20.36;53.06;101640.41;5019213;28;45425;-68
2021/10/26 04:00:35;;;;;;;;;4.00;3.75;;;;;20.42;53.13;101643.72;5019037;28;45329;-73
2021/10/26 04:03:00;;;;;;;;;3.50;3.00;;;;;20.42;53.46;101641.09;5018704;28;45379;-73
2021/10/26 04:05:55;;;;;;;;;6.75;4.75;;;;;20.45;53.26;101640.97;5018416;28;45404;-73
2021/10/26 04:08:23;;;;;;;;;5.25;4.00;;;;;20.47;53.71;101636.47;5018577;28;45395;-73
2021/10/26 04:11:12;;;;;;;;;5.75;4.00;;;;;20.50;53.61;101645.13;5018848;28;45186;-66
2021/10/26 04:13:37;;;;;;;;;5.50;4.25;;;;;20.53;53.97;101646.75;5018405;28;46616;-73
2021/10/26 04:16:03;;;;;;;;;4.75;4.50;;;;;20.54;53.61;101640.56;5018260;28;45781;-73
2021/10/26 04:18:29;;;;;;;;;3.00;3.00;;;;;20.59;53.39;101646.47;5000876;28;45498;-70
2021/10/26 04:20:54;;;;;;;;;3.00;3.00;;;;;20.62;53.84;101650.75;5000856;28;45614;-70
2021/10/26 04:23:21;;;;;;;;;4.00;4.00;;;;;20.65;53.81;101651.50;5018116;28;46473;-72
2021/10/26 04:25:46;;;;;;;;;3.25;3.25;;;;;20.68;54.11;101659.25;5018438;28;45818;-68
2021/10/26 04:28:12;;;;;;;;;4.50;4.50;;;;;20.70;53.86;101659.22;5018670;28;45250;-54
2021/10/26 04:30:37;;;;;;;;;5.00;4.00;;;;;20.72;53.87;101652.09;5018121;28;45290;-62
2021/10/26 04:33:04;;;;;;;;;3.75;2.00;;;;;20.75;54.15;101662.50;5018126;28;45574;-55
2021/10/26 04:35:29;;;;;;;;;5.00;4.50;;;;;20.78;53.77;101658.91;5018460;28;45302;-58
2021/10/26 04:37:55;;;;;;;;;6.00;5.00;;;;;20.78;54.11;101667.66;5000341;28;45257;-61
2021/10/26 04:40:21;;;;;;;;;4.00;3.00;;;;;20.81;54.15;101667.53;5018476;28;45499;-69
2021/10/26 04:42:46;;;;;;;;;3.75;3.00;;;;;20.82;54.01;101665.75;5018178;28;45497;-62
2021/10/26 04:45:11;;;;;;;;;5.25;5.25;;;;;20.83;53.86;101663.06;5018402;28;45458;-63
2021/10/26 04:47:37;;;;;;;;;5.00;5.00;;;;;20.85;53.93;101668.25;5018437;28;45404;-58
2021/10/26 04:50:05;;;;;;;;;3.75;3.00;;;;;20.87;53.60;101671.69;5018421;28;45380;-62
2021/10/26 04:52:30;;;;;;;;;5.00;3.75;;;;;20.85;53.87;101674.38;5017752;28;46295;-73
2021/10/26 04:54:55;;;;;;;;;4.00;4.00;;;;;20.86;54.04;101675.25;5017937;28;45478;-56
2021/10/26 04:57:21;;;;;;;;;4.75;3.75;;;;;20.86;54.09;101677.88;5018231;28;45459;-69
2021/10/26 04:59:46;;;;;;;;;4.50;4.50;;;;;20.86;53.94;101680.50;5018292;28;45384;-67
2021/10/26 05:02:12;;;;;;;;;4.00;4.00;;;;;20.87;53.76;101678.72;5018082;28;46209;-76
2021/10/26 05:04:37;;;;;;;;;5.50;4.25;;;;;20.87;53.51;101678.72;5017859;28;45583;-66
2021/10/26 05:07:03;;;;;;;;;3.00;3.00;;;;;20.87;54.08;101682.22;5017609;28;45776;-68
2021/10/26 05:09:28;;;;;;;;;4.25;3.50;;;;;20.87;53.59;101676.09;4999872;28;45405;-72
2021/10/26 05:11:53;;;;;;;;;5.75;4.25;;;;;20.87;54.04;101682.22;5017634;28;45359;-70
2021/10/26 05:14:19;;;;;;;;;4.00;4.00;;;;;20.84;54.07;101677.06;5017719;28;45331;-61
2021/10/26 05:16:45;;;;;;;;;3.75;3.25;;;;;20.82;54.08;101665.75;5017926;28;45372;-70
2021/10/26 05:19:11;;;;;;;;;4.00;4.00;;;;;20.85;53.51;101684.06;5017955;28;45621;-73
2021/10/26 05:21:37;;;;;;;;;4.50;4.25;;;;;20.82;53.53;101678.91;5017294;28;45448;-70
2021/10/26 05:24:02;;;;;;;;;6.00;3.00;;;;;20.80;54.02;101679.00;5017557;28;45471;-71
2021/10/26 05:26:28;;;;;;;;;3.25;3.00;;;;;20.81;53.66;101682.47;5017771;28;45451;-49
2021/10/26 05:28:54;;;;;;;;;5.00;4.00;;;;;20.81;53.89;101693.88;5017734;28;45310;-49
2021/10/26 05:31:19;;;;;;;;;4.50;4.00;;;;;20.79;53.42;101686.94;5017166;28;46256;-70
2021/10/26 05:33:46;;;;;;;;;3.50;3.00;;;;;20.80;53.44;101696.56;5017736;28;45444;-67
2021/10/26 05:36:13;;;;;;;;;4.00;3.00;;;;;20.78;53.93;101693.16;5017718;28;45919;-69
2021/10/26 05:38:38;;;;;;;;;4.00;4.00;;;;;20.76;53.50;101695.84;5017662;28;45179;-65
2021/10/26 05:41:04;;;;;;;;;4.00;4.00;;;;;20.74;53.95;101696.81;5016438;28;46425;-64
2021/10/26 05:43:30;;;;;;;;;4.00;3.50;;;;;20.76;53.42;101713.44;5016620;28;45361;-74
2021/10/26 05:45:55;;;;;;;;;4.00;4.00;;;;;20.74;53.31;101712.63;4999556;28;45375;-55
2021/10/26 05:48:21;;;;;;;;;4.00;4.00;;;;;20.72;53.19;101712.69;5017164;28;45360;-61
2021/10/26 05:50:47;;;;;;;;;4.00;4.00;;;;;20.70;53.33;101715.38;5016956;28;45965;-65
2021/10/26 05:53:13;;;;;;;;;4.00;4.00;;;;;20.69;53.48;101721.56;5017307;28;45386;-60
2021/10/26 05:55:39;;;;;;;;;6.25;5.00;;;;;20.70;52.92;101723.28;4999021;28;45349;-55
2021/10/26 05:58:05;;;;;;;;;3.00;3.00;;;;;20.68;52.93;101719.84;5017236;28;45567;-73
2021/10/26 06:00:31;;;;;;;;;7.00;3.75;;;;;20.69;52.96;101728.63;5016850;28;47085;-74
2021/10/26 06:02:57;;;;;;;;;4.50;4.50;;;;;20.69;53.16;101726.81;5016703;28;45980;-73
2021/10/26 06:05:22;;;;;;;;;5.75;5.00;;;;;20.69;52.91;101725.97;5016706;28;45371;-68
2021/10/26 06:07:48;;;;;;;;;5.00;4.00;;;;;20.70;52.52;101738.22;5017275;28;45759;-68
2021/10/26 06:10:14;;;;;;;;;3.50;3.50;;;;;20.69;52.77;101742.63;5017004;28;46347;-70
2021/10/26 06:12:46;;;;;;;;;3.50;3.00;;;;;20.74;52.29;101749.50;5016758;28;45303;-65
2021/10/26 06:15:12;;;;;;;;;3.25;3.25;;;;;20.73;52.79;101745.97;5016741;28;45287;-59
2021/10/26 06:17:37;;;;;;;;;5.75;5.00;;;;;20.77;52.48;101754.69;5017046;28;45659;-75
2021/10/26 06:20:04;;;;;;;;;4.50;4.00;;;;;20.81;52.76;101756.25;5016242;28;46686;-76
2021/10/26 06:22:30;;;;;;;;;4.25;3.75;;;;;20.84;52.50;101759.59;5016568;28;45367;-71
2021/10/26 06:24:56;;;;;;;;;4.25;3.00;;;;;20.88;52.61;101752.44;4998830;28;45488;-71
2021/10/26 06:27:21;;;;;;;;;5.00;4.00;;;;;20.94;52.63;101757.44;5016845;28;45324;-64
2021/10/26 06:29:47;;;;;;;;;2.75;2.75;;;;;21.00;52.71;101758.97;4998789;28;45493;-65
2021/10/26 06:32:12;;;;;;;;;6.00;4.00;;;;;21.06;52.13;101755.22;5016404;28;45572;-61
2021/10/26 06:34:37;;;;;;;;;4.75;3.00;;;;;21.12;52.30;101757.56;5016177;28;45469;-57
2021/10/26 06:37:03;;;;;;;;;3.50;3.50;;;;;21.15;52.16;101758.31;5016577;28;45472;-64
2021/10/26 06:39:28;;;;;;;;;3.25;3.25;;;;;21.22;51.91;101763.31;5016095;28;46372;-50
2021/10/26 06:41:54;;;;;;;;;7.25;4.75;;;;;21.27;52.21;101766.63;5016107;28;45353;-52
2021/10/26 06:44:20;;;;;;;;;6.75;5.00;;;;;21.31;51.86;101766.41;5016089;28;45380;-52
2021/10/26 06:46:45;;;;;;;;;3.75;3.75;;;;;21.34;51.59;101765.41;5016402;28;45551;-46
2021/10/26 06:49:11;;;;;;;;;3.25;3.00;;;;;21.34;51.63;101764.53;5015696;28;46203;-53
2021/10/26 06:51:36;;;;;;;;;5.25;5.25;;;;;21.34;51.41;101775.09;5014718;28;45952;-55
2021/10/26 06:54:02;;;;;;;;;5.50;3.50;;;;;21.34;51.28;101781.22;4997679;28;45348;-54
2021/10/26 06:56:29;;;;;;;;;4.25;2.50;;;;;21.33;51.04;101784.78;5015124;28;45412;-62
2021/10/26 06:58:55;;;;;;;;;3.00;3.00;;;;;21.32;51.10;101788.34;5015906;28;45600;-58
2021/10/26 07:01:20;;;;;;;;;5.00;4.00;;;;;21.31;50.96;101790.13;5016264;28;45397;-62
2021/10/26 07:03:45;;;;;;;;;3.50;3.50;;;;;21.31;50.46;101790.13;5016125;28;45844;-56
2021/10/26 07:06:11;;;;;;;;;3.00;3.00;;;;;21.31;50.59;101795.41;5016303;28;45993;-60
2021/10/26 07:08:37;;;;;;;;;7.50;5.00;;;;;21.31;51.05;101805.97;5015494;28;46274;-60
2021/10/26 07:11:04;;;;;;;;;2.75;2.75;;;;;21.31;50.49;101798.06;5015987;28;45886;-51
2021/10/26 07:13:32;;;;;;;;;9.50;4.25;;;;;21.31;50.46;101808.59;5015864;28;45410;-53
2021/10/26 07:15:57;;;;;;;;;4.75;3.00;;;;;21.30;50.72;101820.06;5014596;28;45530;-52
2021/10/26 07:18:23;;;;;;;;;4.00;2.75;;;;;21.28;50.34;101819.28;5015774;28;45977;-51
2021/10/26 07:20:48;;;;;;;;;4.75;3.00;;;;;21.27;50.31;101820.19;5015815;28;45427;-50
2021/10/26 07:23:13;;;;;;;;;5.50;3.50;;;;;21.28;50.45;101826.31;4998195;28;45430;-45
2021/10/26 07:25:39;;;;;;;;;3.25;2.75;;;;;21.27;50.55;101833.38;5015868;28;45357;-49
2021/10/26 07:28:04;;;;;;;;;2.50;2.50;;;;;21.26;50.55;101831.66;5015111;28;45769;-47
2021/10/26 07:30:34;;;;;;;;;4.75;3.50;;;;;21.26;50.00;101830.81;4996806;28;45378;-54
2021/10/26 07:33:02;;;;;;;;;4.00;4.00;;;;;21.26;50.18;101834.28;5015393;28;45557;-54
2021/10/26 07:35:35;;;;;;;;;3.00;3.00;;;;;21.26;49.95;101836.94;5016064;28;45429;-57
2021/10/26 07:38:00;;;;;;;;;4.00;4.00;;;;;21.26;50.11;101846.63;5015569;28;46263;-60
2021/10/26 07:40:26;;;;;;;;;4.00;2.00;;;;;21.25;49.92;101853.66;5015373;28;45516;-51
2021/10/26 07:42:51;;;;;;;;;4.25;3.00;;;;;21.25;50.01;101856.31;5015790;28;45755;-47
2021/10/26 07:45:16;;;;;;;;;3.75;2.50;;;;;21.25;49.88;101866.00;5015661;28;45607;-50
2021/10/26 07:47:42;;;;;;;;;5.00;3.00;;;;;21.26;49.51;101867.72;5015274;28;45337;-59
2021/10/26 07:50:08;;;;;;;;;4.25;3.00;;;;;21.24;49.87;101865.13;5015426;28;45322;-61
2021/10/26 07:52:35;;;;;;;;;3.00;3.00;;;;;21.24;49.87;101862.50;5015570;28;45239;-58
2021/10/26 07:55:02;;;;;;;;;4.00;4.00;;;;;21.23;49.27;101871.31;5015666;28;45595;-59
2021/10/26 07:57:29;;;;;;;;;4.00;4.00;;;;;21.23;49.66;101879.22;5015205;28;46218;-62
2021/10/26 07:59:55;;;;;;;;;3.50;3.00;;;;;21.23;49.51;101875.75;5014966;28;45719;-54
2021/10/26 08:02:21;;;;;;;;;6.00;3.25;;;;;21.23;49.46;101883.66;4998104;28;45364;-53
2021/10/26 08:04:47;;;;;;;;;4.00;3.00;;;;;21.22;49.68;101893.34;4998265;28;45368;-48
2021/10/26 08:07:16;;;;;;;;;6.25;4.00;;;;;21.19;49.45;101890.84;5018571;28;45405;-49
2021/10/26 08:09:42;;;;;;;;;4.00;4.00;;;;;21.20;49.25;101886.41;5018369;28;45365;-57
2021/10/26 08:12:07;;;;;;;;;3.00;3.00;;;;;21.17;49.76;101882.97;5000599;28;45527;-58
2021/10/26 08:14:33;;;;;;;;;3.75;3.00;;;;;21.17;49.26;101880.34;5018437;28;45372;-61
2021/10/26 08:16:58;;;;;;;;;3.25;3.25;;;;;21.17;49.49;101884.78;5018431;28;45406;-56
2021/10/26 08:19:23;;;;;;;;;5.00;4.00;;;;;21.17;49.59;101890.06;5018830;28;45424;-56
2021/10/26 08:21:49;;;;;;;;;4.00;3.00;;;;;21.16;49.34;101883.06;5018810;28;45389;-51
2021/10/26 08:24:20;;;;;;;;;4.00;3.00;;;;;21.15;49.54;101886.63;5018676;28;45558;-57
2021/10/26 08:26:55;;;;;;;;;5.00;3.50;;;;;21.11;49.14;101882.41;5018222;28;47224;-56
2021/10/26 08:29:34;;;;;;;;;3.25;3.25;;;;;21.15;49.56;101889.25;5018658;28;45321;-54
2021/10/26 08:32:28;;;;;;;;;3.25;2.00;;;;;21.11;49.01;101869.22;5018235;28;45401;-48
2021/10/26 08:37:48;;;;;;;;;6.25;4.00;;;;;21.09;49.14;101871.91;5018032;28;45731;-47
2021/10/26 08:40:17;;;;;;;;;3.00;3.00;;;;;21.05;49.27;101872.09;5018129;28;45459;-49
2021/10/26 08:42:44;;;;;;;;;3.00;3.00;;;;;21.08;48.99;101879.88;5018399;28;45306;-53
2021/10/26 08:45:09;;;;;;;;;4.75;2.75;;;;;21.07;49.24;101872.91;5018254;28;45242;-64
2021/10/26 08:47:36;;;;;;;;;2.75;2.75;;;;;21.05;49.37;101885.28;5017444;28;46631;-65
2021/10/26 08:50:03;;;;;;;;;4.75;3.50;;;;;21.05;49.37;101882.66;5000155;28;45354;-61
2021/10/26 08:52:29;;;;;;;;;2.00;2.00;;;;;21.05;49.17;101883.53;5018230;28;45344;-58
2021/10/26 08:54:55;;;;;;;;;3.00;3.00;;;;;21.04;49.13;101875.66;5018693;28;45372;-59
2021/10/26 08:57:21;;;;;;;;;3.00;3.00;;;;;21.02;49.12;101875.72;5017749;28;45669;-57
2021/10/26 08:59:47;;;;;;;;;3.00;3.00;;;;;21.03;49.13;101888.00;5017933;28;45414;-60
2021/10/26 09:02:13;;;;;;;;;2.00;2.00;;;;;21.03;49.30;101881.84;5017930;28;45179;-51
2021/10/26 09:04:38;;;;;;;;;4.00;2.25;;;;;21.01;48.70;101880.13;5017584;28;45218;-62
2021/10/26 09:07:17;;;;;;;;;3.75;3.75;;;;;21.00;48.99;101875.78;5017751;28;45182;-65
2021/10/26 09:09:43;;;;;;;;;4.50;2.25;;;;;20.99;48.82;101874.09;5017357;28;45511;-58
2021/10/26 09:17:50;;;;;;;;;2.50;2.50;;;;;20.98;48.67;101890.81;5017586;28;45457;-66
2021/10/26 09:20:24;;;;;;;;;3.25;2.75;;;;;20.97;48.83;101889.09;5017562;28;45273;-57
2021/10/26 09:22:55;;;;;;;;;2.75;2.75;;;;;20.97;48.72;101896.13;5017511;28;45770;-62
2021/10/26 09:25:32;;;;;;;;;3.50;3.50;;;;;20.96;48.94;101886.50;5017770;28;45432;-56
2021/10/26 09:28:16;;;;;;;;;2.00;2.00;;;;;20.96;48.86;101882.09;5017442;28;46237;-56
2021/10/26 09:30:56;;;;;;;;;2.75;2.75;;;;;20.95;48.86;101880.38;5017396;28;45250;-65
2021/10/26 09:33:39;;;;;;;;;1.25;1.25;;;;;20.96;48.57;101875.97;5017577;28;45338;-64
2021/10/26 09:36:31;;;;;;;;;3.00;2.50;;;;;20.95;48.83;101879.50;5017391;28;45330;-66
2021/10/26 09:39:07;;;;;;;;;3.25;2.50;;;;;20.93;49.00;101876.94;5017359;28;46182;-65
2021/10/26 09:41:51;;;;;;;;;2.50;2.50;;;;;20.95;48.60;101879.50;5017231;28;45427;-63
2021/10/26 09:44:22;;;;;;;;;4.00;4.00;;;;;20.94;48.13;101877.81;5015992;28;45389;-59
2021/10/26 09:46:56;;;;;;;;;2.00;2.00;;;;;20.93;48.37;101871.69;5017555;28;45585;-59
2021/10/26 09:49:36;;;;;;;;;2.25;2.00;;;;;20.93;48.20;101869.03;5016981;28;46806;-55
2021/10/26 09:52:18;;;;;;;;;3.00;3.00;;;;;20.92;48.53;101869.97;4999039;28;45898;-52
2021/10/26 09:55:02;;;;;;;;;2.75;2.75;;;;;20.93;48.39;101870.84;4999676;28;45442;-49
2021/10/26 09:57:38;;;;;;;;;2.25;2.25;;;;;20.91;48.47;101876.16;5018871;28;45470;-47
2021/10/26 10:00:08;;;;;;;;;2.00;2.00;;;;;20.90;48.70;101871.78;5016995;28;46187;-52
2021/10/26 10:02:34;;;;;;;;;2.75;2.75;;;;;20.91;48.60;101870.88;5015485;28;45433;-63
2021/10/26 10:05:00;;;;;;;;;2.50;2.50;;;;;20.91;48.30;101877.94;5016798;28;45579;-54
2021/10/26 10:07:36;;;;;;;;;2.25;2.25;;;;;20.90;48.34;101877.06;5017412;28;45663;-65
2021/10/26 10:10:09;;;;;;;;;4.00;2.25;;;;;20.88;48.07;101878.06;5016542;28;46173;-63
2021/10/26 10:12:36;;;;;;;;;2.50;2.50;;;;;20.88;48.46;101884.19;5015653;28;45836;-64
2021/10/26 10:15:05;;;;;;;;;2.00;2.00;;;;;20.88;48.59;101888.59;5016853;28;45392;-60
2021/10/26 10:17:32;;;;;;;;;1.50;1.50;;;;;20.87;48.58;101889.50;5016817;28;45676;-61
2021/10/26 10:19:57;;;;;;;;;2.00;2.00;;;;;20.86;48.24;101896.56;5016910;28;47008;-62
2021/10/26 10:22:29;;;;;;;;;2.75;1.75;;;;;20.85;48.17;101892.22;4998864;28;45450;-55
2021/10/26 10:25:06;;;;;;;;;2.50;2.50;;;;;20.84;48.04;101887.88;5016729;28;45415;-51
2021/10/26 10:27:36;;;;;;;;;3.25;2.75;;;;;20.84;48.37;101895.78;5016041;28;45576;-57
2021/10/26 10:30:05;;;;;;;;;3.00;3.00;;;;;20.83;48.06;101888.78;5016178;28;46601;-46
2021/10/26 10:32:31;;;;;;;;;2.25;2.25;;;;;20.83;47.80;101891.41;5016439;28;45368;-54
2021/10/26 10:34:58;;;;;;;;;3.75;2.00;;;;;20.84;47.88;101887.88;5016635;28;45735;-57
2021/10/26 10:37:26;;;;;;;;;4.00;2.75;;;;;20.82;48.10;101889.69;5016510;28;45619;-58
2021/10/26 10:40:00;;;;;;;;;2.50;2.50;;;;;20.83;48.34;101891.41;5016215;28;46474;-52
2021/10/26 10:42:29;;;;;;;;;2.00;2.00;;;;;20.83;47.97;101891.41;5016082;28;45351;-57
2021/10/26 10:45:02;;;;;;;;;3.50;3.50;;;;;20.84;47.86;101899.25;5016491;28;45610;-61
2021/10/26 10:47:38;;;;;;;;;2.75;2.00;;;;;20.84;48.00;101903.69;5016847;28;45508;-56
2021/10/26 10:50:24;;;;;;;;;3.00;3.00;;;;;20.84;48.36;101899.25;5016024;28;45705;-58
2021/10/26 10:53:08;;;;;;;;;3.00;2.00;;;;;20.83;48.06;101902.84;4998198;28;45721;-63
2021/10/26 10:55:35;;;;;;;;;1.00;1.00;;;;;20.83;48.24;101897.56;5016216;28;45593;-61
2021/10/26 10:58:27;;;;;;;;;4.00;3.00;;;;;20.81;47.92;101894.13;5016696;28;45402;-52
2021/10/26 11:01:13;;;;;;;;;3.50;2.00;;;;;20.81;47.78;101899.41;5016169;28;45423;-62
2021/10/26 11:03:39;;;;;;;;;3.00;3.00;;;;;20.81;47.68;101901.16;5015851;28;45397;-63
2021/10/26 11:06:04;;;;;;;;;4.75;3.75;;;;;20.80;48.13;101897.69;5016147;28;45313;-57
2021/10/26 11:08:43;;;;;;;;;3.00;3.00;;;;;20.81;47.75;101893.25;5016400;28;45582;-62
2021/10/26 11:11:09;;;;;;;;;2.25;1.75;;;;;20.79;47.98;101887.19;4997996;28;46226;-62
2021/10/26 11:13:37;;;;;;;;;3.50;2.00;;;;;20.79;48.21;101890.69;5015557;28;45269;-62
2021/10/26 11:16:08;;;;;;;;;1.50;1.25;;;;;20.79;47.73;101890.69;5015866;28;45313;-48
2021/10/26 11:18:48;;;;;;;;;2.00;2.00;;;;;20.79;47.81;101890.69;5016099;28;45408;-60
2021/10/26 11:21:25;;;;;;;;;2.00;2.00;;;;;20.76;47.87;101882.06;5015795;28;46146;-58
2021/10/26 11:24:07;;;;;;;;;2.75;1.75;;;;;20.77;47.91;101884.63;5015563;28;45176;-55
2021/10/26 11:26:34;;;;;;;;;4.00;1.00;;;;;20.77;48.09;101881.13;5016072;28;45321;-58
2021/10/26 11:29:01;;;;;;;;;2.00;2.00;;;;;20.78;47.74;101877.59;5016275;28;45503;-63
2021/10/26 11:31:29;;;;;;;;;1.00;1.00;;;;;20.77;47.63;101870.59;5015521;28;46631;-57
2021/10/26 11:34:01;;;;;;;;;2.00;2.00;;;;;20.77;47.76;101873.22;5015638;28;45831;-61
2021/10/26 11:36:32;;;;;;;;;2.00;2.00;;;;;20.78;47.77;101867.06;5016588;28;45397;-55